Hayward Executive, CA

10:33 PM PST on December 19, 2014 (GMT -0800)
Hayward Executive | Change Station
CLOSE
Current Station
Airport
Location: Hayward,
Elevation: 46 ft
Nearby Weather Stations
Active Advisory: Coastal Flood Advisory

Elev 46 ft 37.66 °N, 122.12 °W | Updated 5 minutes ago

Overcast
Overcast
57 °F
Feels Like 57 °F
N
5
Wind Variable Wind from SE

Today
High -- | Low -- °F
--% Chance of Precip.
Yesterday
High -- | Low -- °F
Precip. -- in
7:18 AM 4:52 PM
Waning Crescent, 4% visible
Pressure 30.15 in
Visibility 10.0 miles
Clouds Mostly Cloudy 2700 ft
Overcast 7500 ft
Dew Point 55 °F
Humidity 94%
Rainfall 0.16 in
Snow Depth Not available.
UV 0 out of 12
Pollen 2.00 out of 12
Air Quality Not available.
Flu Activity Not available.
SPECI KHWD 200628Z 13004KT 10SM BKN027 OVC075 14/13 A3015 RMK AO2 $

More Conditions Fewer Conditions

Pressure 30.15 in
Visibility 10.0 miles
Clouds Mostly Cloudy 2700 ft
Overcast 7500 ft
Dew Point 55 °F
Humidity 94%
Rainfall 0.16 in
Snow Depth Not available.
UV 0 out of 12
Pollen 2.00 out of 12
Air Quality Not available.
Flu Activity Not available.
SPECI KHWD 200628Z 13004KT 10SM BKN027 OVC075 14/13 A3015 RMK AO2 $

More Conditions Fewer Conditions

10-Day Weather Forecast

Almanac

Astronomy

Dec. 19, 2014 Rise Set
Actual Time
Civil Twilight
Nautical Twilight
Astronomical Twilight
Moon
Length of Visible Light
Length of Day
Tomorrow will be .
, % of the Moon is Illuminated

Today's Extremes

State Highs State Lows

Community

WunderPhotos

Upload Photos

1,779,145 photos uploaded!

WunderBlogs® & News

Nearby

Air Quality

  Air Quality AQ Index Pollutant
Not available.

Snow Depth

Station Depth Elevation

Earthquake Activity

City Distance Mag. Time & Date
Minimum magnitude displayed is 2.5.

Coastal Water Temperatures

Place Temperature

Nearby Weather Stations